sensor_id;sensor_type;location;lat;lon;timestamp;P1;durP1;ratioP1;P2;durP2;ratioP2
19087;SDS011;9676;50.916;13.352;2023-08-07T00:00:32;9.50;;;8.80;;
19087;SDS011;9676;50.916;13.352;2023-08-07T00:03:22;10.07;;;9.00;;
19087;SDS011;9676;50.916;13.352;2023-08-07T00:06:13;9.90;;;9.10;;
19087;SDS011;9676;50.916;13.352;2023-08-07T00:09:02;9.63;;;8.83;;
19087;SDS011;9676;50.916;13.352;2023-08-07T00:11:52;9.73;;;8.93;;
19087;SDS011;9676;50.916;13.352;2023-08-07T00:14:41;9.60;;;8.80;;
19087;SDS011;9676;50.916;13.352;2023-08-07T00:17:31;9.87;;;9.07;;
19087;SDS011;9676;50.916;13.352;2023-08-07T00:20:20;10.20;;;9.30;;
19087;SDS011;9676;50.916;13.352;2023-08-07T00:23:12;9.30;;;8.60;;
19087;SDS011;9676;50.916;13.352;2023-08-07T00:26:01;9.73;;;8.93;;
19087;SDS011;9676;50.916;13.352;2023-08-07T00:28:50;9.80;;;9.00;;
19087;SDS011;9676;50.916;13.352;2023-08-07T00:31:40;9.60;;;8.80;;
19087;SDS011;9676;50.916;13.352;2023-08-07T00:34:29;10.00;;;9.10;;
19087;SDS011;9676;50.916;13.352;2023-08-07T00:37:19;9.63;;;8.83;;
19087;SDS011;9676;50.916;13.352;2023-08-07T00:40:10;9.90;;;8.90;;
19087;SDS011;9676;50.916;13.352;2023-08-07T00:43:00;9.10;;;8.40;;
19087;SDS011;9676;50.916;13.352;2023-08-07T00:45:49;9.40;;;8.70;;
19087;SDS011;9676;50.916;13.352;2023-08-07T00:48:39;9.50;;;8.70;;
19087;SDS011;9676;50.916;13.352;2023-08-07T00:51:28;9.40;;;8.70;;
19087;SDS011;9676;50.916;13.352;2023-08-07T00:54:18;9.43;;;8.60;;
19087;SDS011;9676;50.916;13.352;2023-08-07T00:57:11;9.37;;;8.67;;
19087;SDS011;9676;50.916;13.352;2023-08-07T01:00:02;9.20;;;8.50;;
19087;SDS011;9676;50.916;13.352;2023-08-07T01:02:55;9.70;;;8.90;;
19087;SDS011;9676;50.916;13.352;2023-08-07T01:05:45;9.63;;;8.60;;
19087;SDS011;9676;50.916;13.352;2023-08-07T01:08:35;9.40;;;8.60;;
19087;SDS011;9676;50.916;13.352;2023-08-07T01:11:28;9.40;;;8.70;;
19087;SDS011;9676;50.916;13.352;2023-08-07T01:14:28;9.43;;;8.70;;
19087;SDS011;9676;50.916;13.352;2023-08-07T01:17:25;9.20;;;8.50;;
19087;SDS011;9676;50.916;13.352;2023-08-07T01:20:15;9.40;;;8.70;;
19087;SDS011;9676;50.916;13.352;2023-08-07T01:23:07;9.40;;;8.70;;
19087;SDS011;9676;50.916;13.352;2023-08-07T01:25:56;9.50;;;8.70;;
19087;SDS011;9676;50.916;13.352;2023-08-07T01:28:46;9.43;;;8.73;;
19087;SDS011;9676;50.916;13.352;2023-08-07T01:31:44;9.90;;;8.70;;
19087;SDS011;9676;50.916;13.352;2023-08-07T01:34:36;9.63;;;8.83;;
19087;SDS011;9676;50.916;13.352;2023-08-07T01:37:30;9.67;;;8.90;;
19087;SDS011;9676;50.916;13.352;2023-08-07T01:40:25;9.80;;;9.00;;
19087;SDS011;9676;50.916;13.352;2023-08-07T01:43:15;9.30;;;8.60;;
19087;SDS011;9676;50.916;13.352;2023-08-07T01:46:06;9.80;;;9.00;;
19087;SDS011;9676;50.916;13.352;2023-08-07T01:48:56;9.97;;;9.07;;
19087;SDS011;9676;50.916;13.352;2023-08-07T01:51:46;9.80;;;9.03;;
19087;SDS011;9676;50.916;13.352;2023-08-07T01:54:35;9.80;;;9.00;;
19087;SDS011;9676;50.916;13.352;2023-08-07T01:57:26;9.60;;;8.80;;
19087;SDS011;9676;50.916;13.352;2023-08-07T02:00:15;10.80;;;9.87;;
19087;SDS011;9676;50.916;13.352;2023-08-07T02:03:06;10.13;;;9.33;;
19087;SDS011;9676;50.916;13.352;2023-08-07T02:05:56;9.77;;;8.97;;
19087;SDS011;9676;50.916;13.352;2023-08-07T02:08:45;10.10;;;9.20;;
19087;SDS011;9676;50.916;13.352;2023-08-07T02:11:35;9.83;;;9.03;;
19087;SDS011;9676;50.916;13.352;2023-08-07T02:14:26;9.67;;;8.90;;
19087;SDS011;9676;50.916;13.352;2023-08-07T02:17:15;9.77;;;8.97;;
19087;SDS011;9676;50.916;13.352;2023-08-07T02:20:05;10.33;;;9.43;;
19087;SDS011;9676;50.916;13.352;2023-08-07T02:22:56;10.23;;;9.33;;
19087;SDS011;9676;50.916;13.352;2023-08-07T02:25:48;9.77;;;8.97;;
19087;SDS011;9676;50.916;13.352;2023-08-07T02:28:37;9.77;;;9.00;;
19087;SDS011;9676;50.916;13.352;2023-08-07T02:31:28;9.90;;;9.10;;
19087;SDS011;9676;50.916;13.352;2023-08-07T02:34:17;9.90;;;9.10;;
19087;SDS011;9676;50.916;13.352;2023-08-07T02:37:07;10.17;;;9.37;;
19087;SDS011;9676;50.916;13.352;2023-08-07T02:39:56;10.40;;;9.50;;
19087;SDS011;9676;50.916;13.352;2023-08-07T02:42:45;10.70;;;9.73;;
19087;SDS011;9676;50.916;13.352;2023-08-07T02:45:35;10.10;;;9.30;;
19087;SDS011;9676;50.916;13.352;2023-08-07T02:48:26;10.03;;;9.23;;
19087;SDS011;9676;50.916;13.352;2023-08-07T02:51:15;10.20;;;9.30;;
19087;SDS011;9676;50.916;13.352;2023-08-07T02:54:04;10.10;;;9.23;;
19087;SDS011;9676;50.916;13.352;2023-08-07T02:56:54;10.47;;;9.50;;
19087;SDS011;9676;50.916;13.352;2023-08-07T02:59:44;9.90;;;9.00;;
19087;SDS011;9676;50.916;13.352;2023-08-07T03:02:34;10.10;;;9.30;;
19087;SDS011;9676;50.916;13.352;2023-08-07T03:05:25;10.50;;;9.60;;
19087;SDS011;9676;50.916;13.352;2023-08-07T03:08:14;10.30;;;9.40;;
19087;SDS011;9676;50.916;13.352;2023-08-07T03:11:04;10.40;;;9.50;;
19087;SDS011;9676;50.916;13.352;2023-08-07T03:13:53;11.10;;;10.10;;
19087;SDS011;9676;50.916;13.352;2023-08-07T03:16:43;10.57;;;9.67;;
19087;SDS011;9676;50.916;13.352;2023-08-07T03:19:34;11.53;;;10.53;;
19087;SDS011;9676;50.916;13.352;2023-08-07T03:22:25;10.83;;;9.93;;
19087;SDS011;9676;50.916;13.352;2023-08-07T03:25:15;11.20;;;10.20;;
19087;SDS011;9676;50.916;13.352;2023-08-07T03:28:05;11.40;;;10.40;;
19087;SDS011;9676;50.916;13.352;2023-08-07T03:30:54;11.23;;;10.23;;
19087;SDS011;9676;50.916;13.352;2023-08-07T03:33:45;11.00;;;10.10;;
19087;SDS011;9676;50.916;13.352;2023-08-07T03:36:36;11.13;;;10.13;;
19087;SDS011;9676;50.916;13.352;2023-08-07T03:39:27;11.27;;;10.27;;
19087;SDS011;9676;50.916;13.352;2023-08-07T03:42:16;10.80;;;9.90;;
19087;SDS011;9676;50.916;13.352;2023-08-07T03:45:07;11.50;;;10.50;;
19087;SDS011;9676;50.916;13.352;2023-08-07T03:47:58;11.10;;;10.10;;
19087;SDS011;9676;50.916;13.352;2023-08-07T03:50:49;11.40;;;10.40;;
19087;SDS011;9676;50.916;13.352;2023-08-07T03:53:38;10.80;;;9.80;;
19087;SDS011;9676;50.916;13.352;2023-08-07T03:56:29;11.27;;;10.27;;
19087;SDS011;9676;50.916;13.352;2023-08-07T03:59:23;11.20;;;10.00;;
19087;SDS011;9676;50.916;13.352;2023-08-07T04:02:13;17.53;;;10.03;;
19087;SDS011;9676;50.916;13.352;2023-08-07T04:05:02;11.10;;;10.10;;
19087;SDS011;9676;50.916;13.352;2023-08-07T04:07:52;11.47;;;10.37;;
19087;SDS011;9676;50.916;13.352;2023-08-07T04:10:43;14.30;;;10.70;;
19087;SDS011;9676;50.916;13.352;2023-08-07T04:13:34;11.13;;;10.13;;
19087;SDS011;9676;50.916;13.352;2023-08-07T04:16:23;11.13;;;10.07;;
19087;SDS011;9676;50.916;13.352;2023-08-07T04:19:13;10.80;;;9.83;;
19087;SDS011;9676;50.916;13.352;2023-08-07T04:22:02;11.07;;;9.97;;
19087;SDS011;9676;50.916;13.352;2023-08-07T04:24:52;10.90;;;9.90;;
19087;SDS011;9676;50.916;13.352;2023-08-07T04:27:42;11.30;;;10.30;;
19087;SDS011;9676;50.916;13.352;2023-08-07T04:30:33;10.60;;;9.70;;
19087;SDS011;9676;50.916;13.352;2023-08-07T04:33:22;10.70;;;9.70;;
19087;SDS011;9676;50.916;13.352;2023-08-07T04:36:11;10.90;;;9.90;;
19087;SDS011;9676;50.916;13.352;2023-08-07T04:39:01;11.13;;;10.10;;
19087;SDS011;9676;50.916;13.352;2023-08-07T04:41:50;11.10;;;10.00;;
19087;SDS011;9676;50.916;13.352;2023-08-07T04:44:40;11.23;;;10.23;;
19087;SDS011;9676;50.916;13.352;2023-08-07T04:47:31;10.97;;;9.87;;
19087;SDS011;9676;50.916;13.352;2023-08-07T04:50:20;15.70;;;9.93;;
19087;SDS011;9676;50.916;13.352;2023-08-07T04:53:09;10.53;;;9.63;;
19087;SDS011;9676;50.916;13.352;2023-08-07T04:55:59;11.30;;;10.10;;
19087;SDS011;9676;50.916;13.352;2023-08-07T04:58:48;10.67;;;9.77;;
19087;SDS011;9676;50.916;13.352;2023-08-07T05:01:38;10.90;;;9.87;;
19087;SDS011;9676;50.916;13.352;2023-08-07T05:04:28;10.93;;;9.93;;
19087;SDS011;9676;50.916;13.352;2023-08-07T05:07:18;10.60;;;9.70;;
19087;SDS011;9676;50.916;13.352;2023-08-07T05:10:08;10.37;;;9.47;;
19087;SDS011;9676;50.916;13.352;2023-08-07T05:12:58;10.50;;;9.50;;
19087;SDS011;9676;50.916;13.352;2023-08-07T05:15:47;10.90;;;9.90;;
19087;SDS011;9676;50.916;13.352;2023-08-07T05:18:37;10.30;;;9.40;;
19087;SDS011;9676;50.916;13.352;2023-08-07T05:21:28;10.03;;;9.23;;
19087;SDS011;9676;50.916;13.352;2023-08-07T05:24:17;10.37;;;9.50;;
19087;SDS011;9676;50.916;13.352;2023-08-07T05:27:07;9.50;;;8.80;;
19087;SDS011;9676;50.916;13.352;2023-08-07T05:29:57;9.87;;;9.07;;
19087;SDS011;9676;50.916;13.352;2023-08-07T05:32:48;10.03;;;9.23;;
19087;SDS011;9676;50.916;13.352;2023-08-07T05:35:37;9.40;;;8.70;;
19087;SDS011;9676;50.916;13.352;2023-08-07T05:38:29;9.67;;;8.87;;
19087;SDS011;9676;50.916;13.352;2023-08-07T05:41:18;9.80;;;9.00;;
19087;SDS011;9676;50.916;13.352;2023-08-07T05:44:07;10.03;;;9.23;;
19087;SDS011;9676;50.916;13.352;2023-08-07T05:46:57;9.77;;;8.97;;
19087;SDS011;9676;50.916;13.352;2023-08-07T05:49:46;10.03;;;9.13;;
19087;SDS011;9676;50.916;13.352;2023-08-07T05:52:35;10.30;;;9.40;;
19087;SDS011;9676;50.916;13.352;2023-08-07T05:55:26;10.00;;;9.10;;
19087;SDS011;9676;50.916;13.352;2023-08-07T05:58:15;10.30;;;9.40;;
19087;SDS011;9676;50.916;13.352;2023-08-07T06:01:06;11.30;;;9.47;;
19087;SDS011;9676;50.916;13.352;2023-08-07T06:03:55;10.10;;;9.20;;
19087;SDS011;9676;50.916;13.352;2023-08-07T06:06:45;9.90;;;9.10;;
19087;SDS011;9676;50.916;13.352;2023-08-07T06:09:34;9.90;;;9.10;;
19087;SDS011;9676;50.916;13.352;2023-08-07T06:12:25;9.73;;;8.93;;
19087;SDS011;9676;50.916;13.352;2023-08-07T06:15:15;10.70;;;9.70;;
19087;SDS011;9676;50.916;13.352;2023-08-07T06:18:05;10.00;;;9.20;;
19087;SDS011;9676;50.916;13.352;2023-08-07T06:20:54;9.90;;;9.10;;
19087;SDS011;9676;50.916;13.352;2023-08-07T06:23:44;10.27;;;9.40;;
19087;SDS011;9676;50.916;13.352;2023-08-07T06:26:34;10.30;;;9.27;;
19087;SDS011;9676;50.916;13.352;2023-08-07T06:29:25;10.63;;;9.50;;
19087;SDS011;9676;50.916;13.352;2023-08-07T06:32:14;9.87;;;9.07;;
19087;SDS011;9676;50.916;13.352;2023-08-07T06:35:05;10.20;;;9.20;;
19087;SDS011;9676;50.916;13.352;2023-08-07T06:37:56;9.90;;;9.10;;
19087;SDS011;9676;50.916;13.352;2023-08-07T06:40:45;9.57;;;8.80;;
19087;SDS011;9676;50.916;13.352;2023-08-07T06:43:34;9.70;;;8.90;;
19087;SDS011;9676;50.916;13.352;2023-08-07T06:46:25;9.90;;;9.10;;
19087;SDS011;9676;50.916;13.352;2023-08-07T06:49:15;10.03;;;9.13;;
19087;SDS011;9676;50.916;13.352;2023-08-07T06:52:05;9.77;;;8.97;;
19087;SDS011;9676;50.916;13.352;2023-08-07T06:54:55;10.10;;;9.30;;
19087;SDS011;9676;50.916;13.352;2023-08-07T06:57:44;9.67;;;8.87;;
19087;SDS011;9676;50.916;13.352;2023-08-07T07:00:33;10.07;;;9.13;;
19087;SDS011;9676;50.916;13.352;2023-08-07T07:03:24;10.00;;;9.03;;
19087;SDS011;9676;50.916;13.352;2023-08-07T07:06:14;9.80;;;9.00;;
19087;SDS011;9676;50.916;13.352;2023-08-07T07:09:03;9.67;;;8.87;;
19087;SDS011;9676;50.916;13.352;2023-08-07T07:11:53;9.47;;;8.70;;
19087;SDS011;9676;50.916;13.352;2023-08-07T07:14:43;9.60;;;8.80;;
19087;SDS011;9676;50.916;13.352;2023-08-07T07:17:32;9.40;;;8.70;;
19087;SDS011;9676;50.916;13.352;2023-08-07T07:20:23;9.67;;;8.83;;
19087;SDS011;9676;50.916;13.352;2023-08-07T07:23:14;9.30;;;8.60;;
19087;SDS011;9676;50.916;13.352;2023-08-07T07:26:03;9.40;;;8.70;;
19087;SDS011;9676;50.916;13.352;2023-08-07T07:28:52;9.60;;;8.80;;
19087;SDS011;9676;50.916;13.352;2023-08-07T07:31:42;9.47;;;8.77;;
19087;SDS011;9676;50.916;13.352;2023-08-07T07:34:32;9.53;;;8.77;;
19087;SDS011;9676;50.916;13.352;2023-08-07T07:37:23;9.60;;;8.80;;
19087;SDS011;9676;50.916;13.352;2023-08-07T07:40:12;9.63;;;8.83;;
19087;SDS011;9676;50.916;13.352;2023-08-07T07:43:02;9.80;;;8.90;;
19087;SDS011;9676;50.916;13.352;2023-08-07T07:45:51;9.60;;;8.80;;
19087;SDS011;9676;50.916;13.352;2023-08-07T07:48:40;9.40;;;8.63;;
19087;SDS011;9676;50.916;13.352;2023-08-07T07:51:30;9.40;;;8.60;;
19087;SDS011;9676;50.916;13.352;2023-08-07T07:54:22;9.77;;;8.97;;
19087;SDS011;9676;50.916;13.352;2023-08-07T07:57:11;9.30;;;8.60;;
19087;SDS011;9676;50.916;13.352;2023-08-07T08:00:01;9.40;;;8.70;;
19087;SDS011;9676;50.916;13.352;2023-08-07T08:03:15;9.90;;;8.93;;
19087;SDS011;9676;50.916;13.352;2023-08-07T08:06:04;10.00;;;9.20;;
19087;SDS011;9676;50.916;13.352;2023-08-07T08:08:54;9.57;;;8.77;;
19087;SDS011;9676;50.916;13.352;2023-08-07T08:11:45;9.70;;;8.80;;
19087;SDS011;9676;50.916;13.352;2023-08-07T08:14:34;9.60;;;8.80;;
19087;SDS011;9676;50.916;13.352;2023-08-07T08:17:40;9.63;;;8.83;;
19087;SDS011;9676;50.916;13.352;2023-08-07T08:20:31;9.53;;;8.73;;
19087;SDS011;9676;50.916;13.352;2023-08-07T08:23:20;9.30;;;8.60;;
19087;SDS011;9676;50.916;13.352;2023-08-07T08:26:10;9.40;;;8.60;;
19087;SDS011;9676;50.916;13.352;2023-08-07T08:29:01;9.83;;;8.93;;
19087;SDS011;9676;50.916;13.352;2023-08-07T08:31:51;9.47;;;8.70;;
19087;SDS011;9676;50.916;13.352;2023-08-07T08:34:42;9.43;;;8.63;;
19087;SDS011;9676;50.916;13.352;2023-08-07T08:37:31;9.80;;;9.00;;
19087;SDS011;9676;50.916;13.352;2023-08-07T08:40:20;9.20;;;8.50;;
19087;SDS011;9676;50.916;13.352;2023-08-07T08:43:10;9.40;;;8.67;;
19087;SDS011;9676;50.916;13.352;2023-08-07T08:46:03;9.47;;;8.67;;
19087;SDS011;9676;50.916;13.352;2023-08-07T08:48:57;9.10;;;8.40;;
19087;SDS011;9676;50.916;13.352;2023-08-07T08:51:47;9.37;;;8.57;;
19087;SDS011;9676;50.916;13.352;2023-08-07T08:54:37;8.90;;;8.20;;
19087;SDS011;9676;50.916;13.352;2023-08-07T08:57:27;9.47;;;8.67;;
19087;SDS011;9676;50.916;13.352;2023-08-07T09:00:17;9.30;;;8.50;;
19087;SDS011;9676;50.916;13.352;2023-08-07T09:03:10;9.00;;;8.30;;
19087;SDS011;9676;50.916;13.352;2023-08-07T09:06:00;9.50;;;8.50;;
19087;SDS011;9676;50.916;13.352;2023-08-07T09:08:50;9.30;;;8.50;;
19087;SDS011;9676;50.916;13.352;2023-08-07T09:11:40;9.50;;;8.70;;
19087;SDS011;9676;50.916;13.352;2023-08-07T09:14:30;9.20;;;8.50;;
19087;SDS011;9676;50.916;13.352;2023-08-07T09:17:27;9.40;;;8.60;;
19087;SDS011;9676;50.916;13.352;2023-08-07T09:20:19;9.30;;;8.50;;
19087;SDS011;9676;50.916;13.352;2023-08-07T09:23:10;9.30;;;8.50;;
19087;SDS011;9676;50.916;13.352;2023-08-07T09:26:00;9.23;;;8.47;;
19087;SDS011;9676;50.916;13.352;2023-08-07T09:28:51;9.10;;;8.40;;
19087;SDS011;9676;50.916;13.352;2023-08-07T09:31:42;8.90;;;8.20;;
19087;SDS011;9676;50.916;13.352;2023-08-07T09:34:33;9.30;;;8.40;;
19087;SDS011;9676;50.916;13.352;2023-08-07T09:37:24;9.00;;;8.30;;
19087;SDS011;9676;50.916;13.352;2023-08-07T09:40:14;9.30;;;8.50;;
19087;SDS011;9676;50.916;13.352;2023-08-07T09:43:03;9.03;;;8.30;;
19087;SDS011;9676;50.916;13.352;2023-08-07T09:46:01;9.30;;;8.30;;
19087;SDS011;9676;50.916;13.352;2023-08-07T09:48:52;9.20;;;8.40;;
19087;SDS011;9676;50.916;13.352;2023-08-07T09:51:47;8.77;;;8.07;;
19087;SDS011;9676;50.916;13.352;2023-08-07T09:54:39;8.70;;;8.00;;
19087;SDS011;9676;50.916;13.352;2023-08-07T09:57:28;8.77;;;8.07;;
19087;SDS011;9676;50.916;13.352;2023-08-07T10:00:20;8.97;;;8.07;;
19087;SDS011;9676;50.916;13.352;2023-08-07T10:03:10;8.90;;;8.20;;
19087;SDS011;9676;50.916;13.352;2023-08-07T10:05:59;9.10;;;8.30;;
19087;SDS011;9676;50.916;13.352;2023-08-07T10:08:49;8.77;;;8.00;;
19087;SDS011;9676;50.916;13.352;2023-08-07T10:11:41;9.00;;;8.27;;
19087;SDS011;9676;50.916;13.352;2023-08-07T10:14:31;8.90;;;8.20;;
19087;SDS011;9676;50.916;13.352;2023-08-07T10:17:20;9.10;;;8.30;;
19087;SDS011;9676;50.916;13.352;2023-08-07T10:20:11;9.20;;;8.40;;
19087;SDS011;9676;50.916;13.352;2023-08-07T10:23:06;9.10;;;8.30;;
19087;SDS011;9676;50.916;13.352;2023-08-07T10:25:58;8.70;;;8.00;;
19087;SDS011;9676;50.916;13.352;2023-08-07T10:28:51;9.00;;;8.23;;
19087;SDS011;9676;50.916;13.352;2023-08-07T10:31:42;9.10;;;8.30;;
19087;SDS011;9676;50.916;13.352;2023-08-07T10:34:33;8.80;;;8.07;;
19087;SDS011;9676;50.916;13.352;2023-08-07T10:37:32;9.20;;;8.40;;
19087;SDS011;9676;50.916;13.352;2023-08-07T10:40:26;9.20;;;8.40;;
19087;SDS011;9676;50.916;13.352;2023-08-07T10:43:17;9.13;;;8.37;;
19087;SDS011;9676;50.916;13.352;2023-08-07T10:46:08;9.03;;;8.30;;
19087;SDS011;9676;50.916;13.352;2023-08-07T10:49:00;9.20;;;8.40;;
19087;SDS011;9676;50.916;13.352;2023-08-07T10:51:51;9.40;;;8.50;;
19087;SDS011;9676;50.916;13.352;2023-08-07T10:54:45;9.27;;;8.50;;
19087;SDS011;9676;50.916;13.352;2023-08-07T10:57:37;9.50;;;8.50;;
19087;SDS011;9676;50.916;13.352;2023-08-07T11:00:28;9.00;;;8.30;;
19087;SDS011;9676;50.916;13.352;2023-08-07T11:03:27;9.53;;;8.63;;
19087;SDS011;9676;50.916;13.352;2023-08-07T11:06:16;8.90;;;8.20;;
19087;SDS011;9676;50.916;13.352;2023-08-07T11:09:07;8.97;;;8.27;;
19087;SDS011;9676;50.916;13.352;2023-08-07T11:11:58;9.13;;;8.33;;
19087;SDS011;9676;50.916;13.352;2023-08-07T11:14:47;9.00;;;8.30;;
19087;SDS011;9676;50.916;13.352;2023-08-07T11:17:37;9.10;;;8.33;;
19087;SDS011;9676;50.916;13.352;2023-08-07T11:20:29;9.00;;;8.30;;
19087;SDS011;9676;50.916;13.352;2023-08-07T11:23:22;9.57;;;8.60;;
19087;SDS011;9676;50.916;13.352;2023-08-07T11:26:12;8.70;;;8.00;;
19087;SDS011;9676;50.916;13.352;2023-08-07T11:29:02;9.23;;;8.43;;
19087;SDS011;9676;50.916;13.352;2023-08-07T11:31:51;8.93;;;8.23;;
19087;SDS011;9676;50.916;13.352;2023-08-07T11:34:41;9.20;;;8.40;;
19087;SDS011;9676;50.916;13.352;2023-08-07T11:37:46;9.20;;;8.40;;
19087;SDS011;9676;50.916;13.352;2023-08-07T11:40:35;9.53;;;8.63;;
19087;SDS011;9676;50.916;13.352;2023-08-07T11:43:26;9.50;;;8.60;;
19087;SDS011;9676;50.916;13.352;2023-08-07T11:46:17;9.40;;;8.60;;
19087;SDS011;9676;50.916;13.352;2023-08-07T11:49:06;9.30;;;8.50;;
19087;SDS011;9676;50.916;13.352;2023-08-07T11:51:57;9.00;;;8.30;;
19087;SDS011;9676;50.916;13.352;2023-08-07T11:54:48;9.20;;;8.40;;
19087;SDS011;9676;50.916;13.352;2023-08-07T11:57:38;9.10;;;8.40;;
19087;SDS011;9676;50.916;13.352;2023-08-07T12:00:29;9.03;;;8.20;;
19087;SDS011;9676;50.916;13.352;2023-08-07T12:03:23;9.30;;;8.50;;
19087;SDS011;9676;50.916;13.352;2023-08-07T12:06:15;9.30;;;8.40;;
19087;SDS011;9676;50.916;13.352;2023-08-07T12:09:05;9.00;;;8.20;;
19087;SDS011;9676;50.916;13.352;2023-08-07T12:12:01;9.60;;;8.80;;
19087;SDS011;9676;50.916;13.352;2023-08-07T12:14:52;9.17;;;8.40;;
19087;SDS011;9676;50.916;13.352;2023-08-07T12:17:43;9.27;;;8.47;;
19087;SDS011;9676;50.916;13.352;2023-08-07T12:20:33;9.07;;;8.30;;
19087;SDS011;9676;50.916;13.352;2023-08-07T12:23:22;9.50;;;8.70;;
19087;SDS011;9676;50.916;13.352;2023-08-07T12:26:13;9.03;;;8.33;;
19087;SDS011;9676;50.916;13.352;2023-08-07T12:29:04;9.00;;;8.30;;
19087;SDS011;9676;50.916;13.352;2023-08-07T12:31:53;9.30;;;8.50;;
19087;SDS011;9676;50.916;13.352;2023-08-07T12:34:43;8.90;;;8.20;;
19087;SDS011;9676;50.916;13.352;2023-08-07T12:37:35;9.27;;;8.47;;
19087;SDS011;9676;50.916;13.352;2023-08-07T12:40:25;9.00;;;8.30;;
19087;SDS011;9676;50.916;13.352;2023-08-07T12:43:17;9.20;;;8.40;;
19087;SDS011;9676;50.916;13.352;2023-08-07T12:46:08;9.10;;;8.30;;
19087;SDS011;9676;50.916;13.352;2023-08-07T12:49:00;8.90;;;8.20;;
19087;SDS011;9676;50.916;13.352;2023-08-07T12:51:49;9.03;;;8.33;;
19087;SDS011;9676;50.916;13.352;2023-08-07T12:54:40;8.90;;;8.20;;
19087;SDS011;9676;50.916;13.352;2023-08-07T12:57:29;9.00;;;8.23;;
19087;SDS011;9676;50.916;13.352;2023-08-07T13:00:19;8.90;;;8.20;;
19087;SDS011;9676;50.916;13.352;2023-08-07T13:03:10;8.80;;;8.10;;
19087;SDS011;9676;50.916;13.352;2023-08-07T13:06:00;8.90;;;8.20;;
19087;SDS011;9676;50.916;13.352;2023-08-07T13:08:53;8.90;;;8.20;;
19087;SDS011;9676;50.916;13.352;2023-08-07T13:11:43;9.50;;;8.43;;
19087;SDS011;9676;50.916;13.352;2023-08-07T13:14:32;9.00;;;8.30;;
19087;SDS011;9676;50.916;13.352;2023-08-07T13:17:22;9.03;;;8.23;;
19087;SDS011;9676;50.916;13.352;2023-08-07T13:20:13;8.90;;;8.20;;
19087;SDS011;9676;50.916;13.352;2023-08-07T13:23:03;8.90;;;8.20;;
19087;SDS011;9676;50.916;13.352;2023-08-07T13:25:53;8.93;;;8.23;;
19087;SDS011;9676;50.916;13.352;2023-08-07T13:28:43;9.00;;;8.30;;
19087;SDS011;9676;50.916;13.352;2023-08-07T13:31:32;8.90;;;8.10;;
19087;SDS011;9676;50.916;13.352;2023-08-07T13:34:21;8.67;;;7.97;;
19087;SDS011;9676;50.916;13.352;2023-08-07T13:37:13;9.00;;;8.30;;
19087;SDS011;9676;50.916;13.352;2023-08-07T13:40:03;8.83;;;8.13;;
19087;SDS011;9676;50.916;13.352;2023-08-07T13:42:54;8.90;;;8.20;;
19087;SDS011;9676;50.916;13.352;2023-08-07T13:45:43;9.10;;;8.40;;
19087;SDS011;9676;50.916;13.352;2023-08-07T13:48:33;9.03;;;8.30;;
19087;SDS011;9676;50.916;13.352;2023-08-07T13:51:22;9.20;;;8.40;;
19087;SDS011;9676;50.916;13.352;2023-08-07T13:54:13;11.60;;;8.30;;
19087;SDS011;9676;50.916;13.352;2023-08-07T13:57:02;8.80;;;8.10;;
19087;SDS011;9676;50.916;13.352;2023-08-07T13:59:53;9.10;;;8.40;;
19087;SDS011;9676;50.916;13.352;2023-08-07T14:02:42;9.40;;;8.53;;
19087;SDS011;9676;50.916;13.352;2023-08-07T14:05:32;9.00;;;8.30;;
19087;SDS011;9676;50.916;13.352;2023-08-07T14:08:26;9.20;;;8.40;;
19087;SDS011;9676;50.916;13.352;2023-08-07T14:11:17;9.70;;;8.87;;
19087;SDS011;9676;50.916;13.352;2023-08-07T14:14:07;9.60;;;8.80;;
19087;SDS011;9676;50.916;13.352;2023-08-07T14:16:56;9.20;;;8.40;;
19087;SDS011;9676;50.916;13.352;2023-08-07T14:19:48;9.33;;;8.40;;
19087;SDS011;9676;50.916;13.352;2023-08-07T14:22:37;9.40;;;8.60;;
19087;SDS011;9676;50.916;13.352;2023-08-07T14:25:28;9.27;;;8.50;;
19087;SDS011;9676;50.916;13.352;2023-08-07T14:28:19;9.30;;;8.60;;
19087;SDS011;9676;50.916;13.352;2023-08-07T14:31:09;9.10;;;8.40;;
19087;SDS011;9676;50.916;13.352;2023-08-07T14:33:58;9.33;;;8.60;;
19087;SDS011;9676;50.916;13.352;2023-08-07T14:36:48;9.20;;;8.50;;
19087;SDS011;9676;50.916;13.352;2023-08-07T14:39:37;9.20;;;8.50;;
19087;SDS011;9676;50.916;13.352;2023-08-07T14:42:27;9.43;;;8.63;;
19087;SDS011;9676;50.916;13.352;2023-08-07T14:45:18;9.10;;;8.40;;
19087;SDS011;9676;50.916;13.352;2023-08-07T14:48:08;9.30;;;8.50;;
19087;SDS011;9676;50.916;13.352;2023-08-07T14:50:58;9.30;;;8.50;;
19087;SDS011;9676;50.916;13.352;2023-08-07T14:53:47;9.10;;;8.40;;
19087;SDS011;9676;50.916;13.352;2023-08-07T14:56:36;9.20;;;8.50;;
19087;SDS011;9676;50.916;13.352;2023-08-07T14:59:26;9.20;;;8.50;;
19087;SDS011;9676;50.916;13.352;2023-08-07T15:02:17;9.20;;;8.50;;
19087;SDS011;9676;50.916;13.352;2023-08-07T15:05:06;13.10;;;8.50;;
19087;SDS011;9676;50.916;13.352;2023-08-07T15:07:56;9.37;;;8.63;;
19087;SDS011;9676;50.916;13.352;2023-08-07T15:10:46;9.20;;;8.40;;
19087;SDS011;9676;50.916;13.352;2023-08-07T15:13:35;9.37;;;8.57;;
19087;SDS011;9676;50.916;13.352;2023-08-07T15:16:25;9.10;;;8.40;;
19087;SDS011;9676;50.916;13.352;2023-08-07T15:19:15;9.13;;;8.43;;
19087;SDS011;9676;50.916;13.352;2023-08-07T15:22:05;9.00;;;8.30;;
19087;SDS011;9676;50.916;13.352;2023-08-07T15:24:54;9.07;;;8.37;;
19087;SDS011;9676;50.916;13.352;2023-08-07T15:27:44;9.00;;;8.30;;
19087;SDS011;9676;50.916;13.352;2023-08-07T15:30:33;9.30;;;8.50;;
19087;SDS011;9676;50.916;13.352;2023-08-07T15:33:23;9.23;;;8.47;;
19087;SDS011;9676;50.916;13.352;2023-08-07T15:36:13;11.90;;;8.50;;
19087;SDS011;9676;50.916;13.352;2023-08-07T15:39:03;9.90;;;9.00;;
19087;SDS011;9676;50.916;13.352;2023-08-07T15:41:52;10.20;;;9.30;;
19087;SDS011;9676;50.916;13.352;2023-08-07T15:44:42;9.87;;;8.97;;
19087;SDS011;9676;50.916;13.352;2023-08-07T15:47:31;9.60;;;8.80;;
19087;SDS011;9676;50.916;13.352;2023-08-07T15:50:21;9.50;;;8.70;;
19087;SDS011;9676;50.916;13.352;2023-08-07T15:53:12;9.63;;;8.83;;
19087;SDS011;9676;50.916;13.352;2023-08-07T15:56:02;9.60;;;8.80;;
19087;SDS011;9676;50.916;13.352;2023-08-07T15:58:51;9.63;;;8.80;;
19087;SDS011;9676;50.916;13.352;2023-08-07T16:01:41;9.37;;;8.57;;
19087;SDS011;9676;50.916;13.352;2023-08-07T16:04:30;9.10;;;8.40;;
19087;SDS011;9676;50.916;13.352;2023-08-07T16:07:20;9.67;;;8.67;;
19087;SDS011;9676;50.916;13.352;2023-08-07T16:10:10;8.97;;;8.30;;
19087;SDS011;9676;50.916;13.352;2023-08-07T16:13:00;9.53;;;8.57;;
19087;SDS011;9676;50.916;13.352;2023-08-07T16:15:50;9.60;;;8.80;;
19087;SDS011;9676;50.916;13.352;2023-08-07T16:18:39;9.37;;;8.57;;
19087;SDS011;9676;50.916;13.352;2023-08-07T16:21:29;9.10;;;8.40;;
19087;SDS011;9676;50.916;13.352;2023-08-07T16:24:18;9.10;;;8.40;;
19087;SDS011;9676;50.916;13.352;2023-08-07T16:27:09;9.20;;;8.50;;
19087;SDS011;9676;50.916;13.352;2023-08-07T16:30:00;9.30;;;8.53;;
19087;SDS011;9676;50.916;13.352;2023-08-07T16:32:51;9.20;;;8.50;;
19087;SDS011;9676;50.916;13.352;2023-08-07T16:35:41;9.13;;;8.43;;
19087;SDS011;9676;50.916;13.352;2023-08-07T16:38:30;9.10;;;8.40;;
19087;SDS011;9676;50.916;13.352;2023-08-07T16:41:20;9.23;;;8.43;;
19087;SDS011;9676;50.916;13.352;2023-08-07T16:44:10;9.60;;;8.60;;
19087;SDS011;9676;50.916;13.352;2023-08-07T16:47:00;9.40;;;8.60;;
19087;SDS011;9676;50.916;13.352;2023-08-07T16:49:49;9.60;;;8.73;;
19087;SDS011;9676;50.916;13.352;2023-08-07T16:52:39;9.10;;;8.40;;
19087;SDS011;9676;50.916;13.352;2023-08-07T16:55:28;9.53;;;8.73;;
19087;SDS011;9676;50.916;13.352;2023-08-07T16:58:17;10.10;;;9.20;;
19087;SDS011;9676;50.916;13.352;2023-08-07T17:01:08;9.60;;;8.80;;